Time;durP1;ratioP1;P1;durP2;ratioP2;P2;SDS_P1;SDS_P2;PMS_P1;PMS_P2;Temp;Humidity;BMP_temperature;BMP_pressure;BME280_temperature;BME280_humidity;BME280_pressure;Samples;Min_cycle;Max_cycle;Signal;HPM_P1;HPM_P2
2022/08/31 00:06:02;;;;;;;4.32;1.85;;;20.30;52.50;;;;;;4997192;28;20040;-89
2022/08/31 00:08:30;;;;;;;3.47;1.42;;;20.30;52.60;;;;;;5006840;28;20022;-88
2022/08/31 00:10:56;;;;;;;3.50;1.27;;;20.30;52.70;;;;;;4993201;28;20063;-89
2022/08/31 00:13:23;;;;;;;2.10;1.65;;;20.20;52.60;;;;;;4996299;28;20045;-88
2022/08/31 00:15:51;;;;;;;2.47;1.45;;;20.20;52.80;;;;;;5000692;28;20095;-87
2022/08/31 00:18:18;;;;;;;3.40;1.27;;;20.20;52.90;;;;;;4997936;28;20025;-89
2022/08/31 00:20:46;;;;;;;3.20;1.58;;;20.10;52.80;;;;;;4993551;28;20400;-88
2022/08/31 00:23:14;;;;;;;2.33;1.20;;;20.10;52.90;;;;;;5013397;28;20036;-89
2022/08/31 00:25:43;;;;;;;3.63;1.65;;;20.10;53.00;;;;;;5009456;28;20369;-88
2022/08/31 00:28:11;;;;;;;4.05;1.52;;;20.10;53.10;;;;;;4998468;28;20033;-89
2022/08/31 00:30:40;;;;;;;6.95;1.80;;;20.10;53.20;;;;;;5016601;28;20033;-88
2022/08/31 00:33:06;;;;;;;3.20;1.58;;;20.10;53.30;;;;;;4996315;28;20049;-88
2022/08/31 00:35:35;;;;;;;2.25;1.50;;;20.00;53.20;;;;;;4995510;28;20025;-88
2022/08/31 00:38:02;;;;;;;3.25;1.70;;;20.00;53.30;;;;;;5012454;28;20037;-87
2022/08/31 00:40:29;;;;;;;5.28;2.53;;;20.00;53.40;;;;;;5008544;28;20334;-88
2022/08/31 00:42:55;;;;;;;3.28;1.77;;;20.00;53.50;;;;;;4995684;28;20033;-88
2022/08/31 00:45:23;;;;;;;2.40;1.52;;;19.90;53.40;;;;;;4962388;28;20032;-88
2022/08/31 00:47:50;;;;;;;4.47;1.65;;;19.90;53.50;;;;;;4994993;28;20590;-89
2022/08/31 00:50:18;;;;;;;2.22;1.52;;;19.90;53.50;;;;;;4995561;28;20022;-89
2022/08/31 00:52:53;;;;;;;3.88;1.67;;;19.80;53.50;;;;;;5012496;28;20705;-88
2022/08/31 00:55:26;;;;;;;2.63;1.40;;;19.80;53.60;;;;;;5005663;28;20300;-89
2022/08/31 00:57:54;;;;;;;2.38;1.60;;;19.80;53.70;;;;;;5016371;28;20348;-87
2022/08/31 01:00:24;;;;;;;4.85;1.67;;;19.80;53.70;;;;;;4981972;28;20014;-89
2022/08/31 01:02:50;;;;;;;1.88;1.23;;;19.80;53.80;;;;;;5011198;28;20434;-88
2022/08/31 01:05:17;;;;;;;3.97;1.50;;;19.70;53.70;;;;;;5024289;28;20542;-87
2022/08/31 01:07:46;;;;;;;5.72;2.03;;;19.70;53.90;;;;;;5000664;28;20034;-86
2022/08/31 01:10:14;;;;;;;3.83;1.70;;;19.70;54.00;;;;;;5020669;28;20033;-88
2022/08/31 01:12:42;;;;;;;1.95;1.50;;;19.70;54.00;;;;;;5011764;28;20033;-89
2022/08/31 01:15:09;;;;;;;3.72;1.73;;;19.70;54.20;;;;;;5021447;28;20033;-87
2022/08/31 01:17:36;;;;;;;4.95;2.22;;;19.60;54.00;;;;;;5016882;28;20045;-88
2022/08/31 01:20:14;;;;;;;3.10;1.60;;;19.60;54.20;;;;;;5011566;28;20034;-86
2022/08/31 01:23:02;;;;;;;3.15;1.55;;;19.60;54.40;;;;;;5023419;28;20041;-86
2022/08/31 01:25:28;;;;;;;5.97;1.83;;;19.60;54.40;;;;;;5014766;28;20036;-87
2022/08/31 01:27:56;;;;;;;6.63;1.65;;;19.50;54.30;;;;;;5019444;28;20045;-88
2022/08/31 01:30:24;;;;;;;2.38;1.92;;;19.50;54.40;;;;;;5023838;28;20384;-88
2022/08/31 01:32:50;;;;;;;2.88;1.83;;;19.50;54.60;;;;;;5032582;28;20261;-89
2022/08/31 01:35:17;;;;;;;3.75;1.50;;;19.50;54.70;;;;;;5038819;28;20038;-88
2022/08/31 01:37:43;;;;;;;3.65;1.77;;;19.50;54.80;;;;;;5024169;28;20120;-91
2022/08/31 01:40:10;;;;;;;3.25;1.50;;;19.50;54.90;;;;;;5016769;28;20139;-89
2022/08/31 01:42:37;;;;;;;3.45;2.58;;;19.40;54.90;;;;;;5012574;28;20045;-89
2022/08/31 01:45:04;;;;;;;5.25;1.77;;;19.40;54.90;;;;;;4999892;28;20110;-89
2022/08/31 01:47:31;;;;;;;5.68;2.22;;;19.40;55.00;;;;;;5014964;28;20119;-89
2022/08/31 01:49:58;;;;;;;3.15;1.77;;;19.40;55.10;;;;;;4993447;28;20078;-89
2022/08/31 01:52:25;;;;;;;3.75;2.08;;;19.40;55.20;;;;;;5018022;28;20052;-90
2022/08/31 01:54:51;;;;;;;3.47;1.88;;;19.40;55.30;;;;;;4998497;28;20059;-90
2022/08/31 01:57:17;;;;;;;3.40;1.67;;;19.40;55.40;;;;;;4998240;28;20033;-89
2022/08/31 02:00:11;;;;;;;2.63;1.70;;;19.40;55.50;;;;;;4995963;28;20582;-89
2022/08/31 02:02:41;;;;;;;8.43;2.35;;;19.30;55.40;;;;;;4982776;28;20029;-88
2022/08/31 02:05:07;;;;;;;2.60;1.70;;;19.30;55.50;;;;;;5013033;28;20029;-88
2022/08/31 02:07:33;;;;;;;3.35;1.98;;;19.30;55.60;;;;;;5015237;28;20333;-87
2022/08/31 02:09:59;;;;;;;5.13;1.60;;;19.30;55.70;;;;;;5017771;28;20029;-87
2022/08/31 02:12:26;;;;;;;5.75;1.70;;;19.20;55.60;;;;;;5012045;28;20053;-88
2022/08/31 02:14:52;;;;;;;6.28;2.60;;;19.20;55.70;;;;;;5006242;28;20044;-86
2022/08/31 02:17:18;;;;;;;3.05;1.55;;;19.20;55.80;;;;;;5015220;28;20463;-85
2022/08/31 02:19:44;;;;;;;5.55;1.70;;;19.20;55.90;;;;;;4985607;28;20091;-86
2022/08/31 02:22:10;;;;;;;3.53;1.83;;;19.20;56.00;;;;;;5005287;28;20033;-87
2022/08/31 02:24:36;;;;;;;4.70;1.90;;;19.10;55.90;;;;;;5016108;28;20467;-85
2022/08/31 02:27:02;;;;;;;2.42;1.67;;;19.10;56.00;;;;;;5016019;28;20022;-86
2022/08/31 02:29:28;;;;;;;3.03;1.65;;;19.10;56.10;;;;;;5016463;28;20303;-86
2022/08/31 02:31:54;;;;;;;5.95;2.55;;;19.00;56.00;;;;;;5003741;28;20107;-85
2022/08/31 02:34:20;;;;;;;4.85;1.95;;;19.00;56.10;;;;;;5004579;28;20033;-86
2022/08/31 02:36:46;;;;;;;3.92;1.55;;;19.00;56.10;;;;;;5017551;28;20036;-85
2022/08/31 02:39:13;;;;;;;3.67;2.00;;;19.00;56.30;;;;;;5025350;28;20490;-90
2022/08/31 02:41:39;;;;;;;2.95;1.98;;;19.00;56.40;;;;;;5014802;28;20025;-88
2022/08/31 02:44:06;;;;;;;3.00;2.00;;;18.90;56.30;;;;;;5028586;28;20029;-89
2022/08/31 02:46:32;;;;;;;4.50;1.88;;;18.90;56.40;;;;;;5018131;28;20236;-88
2022/08/31 02:49:32;;;;;;;4.63;1.70;;;18.90;56.40;;;;;;5003169;28;20033;-88
2022/08/31 02:51:58;;;;;;;3.85;1.88;;;18.80;56.30;;;;;;5010061;28;20550;-89
2022/08/31 02:54:24;;;;;;;2.80;1.70;;;18.80;56.40;;;;;;5003811;28;20109;-87
2022/08/31 02:56:51;;;;;;;4.05;2.30;;;18.80;56.60;;;;;;5000658;28;20463;-89
2022/08/31 02:59:19;;;;;;;3.45;2.03;;;18.80;56.70;;;;;;5006462;28;20357;-89
2022/08/31 03:01:46;;;;;;;3.92;1.95;;;18.70;56.60;;;;;;5000483;28;20492;-89
2022/08/31 03:04:14;;;;;;;6.65;2.58;;;18.70;56.70;;;;;;5015842;28;20091;-88
2022/08/31 03:06:40;;;;;;;3.65;1.67;;;18.70;56.80;;;;;;4996469;28;20080;-86
2022/08/31 03:09:06;;;;;;;3.63;1.95;;;18.70;56.90;;;;;;5008728;28;20033;-85
2022/08/31 03:11:32;;;;;;;3.70;2.20;;;18.60;56.80;;;;;;5020631;28;20025;-85
2022/08/31 03:14:01;;;;;;;4.07;2.35;;;18.60;57.00;;;;;;4984944;28;20034;-86
2022/08/31 03:16:28;;;;;;;4.60;1.98;;;18.60;57.00;;;;;;5015297;28;20449;-87
2022/08/31 03:18:55;;;;;;;5.18;2.15;;;18.60;57.10;;;;;;5010031;28;20041;-87
2022/08/31 03:21:21;;;;;;;5.75;2.38;;;18.60;57.20;;;;;;4999557;28;20026;-84
2022/08/31 03:23:47;;;;;;;3.65;1.88;;;18.50;57.10;;;;;;5019256;28;20033;-85
2022/08/31 03:26:13;;;;;;;5.53;2.47;;;18.50;57.20;;;;;;5018312;28;20122;-84
2022/08/31 03:28:40;;;;;;;3.10;1.52;;;18.50;57.30;;;;;;4977093;28;20800;-85
2022/08/31 03:31:36;;;;;;;3.60;1.98;;;18.50;57.40;;;;;;4970463;28;20063;-83
2022/08/31 03:34:02;;;;;;;4.10;2.03;;;18.40;57.20;;;;;;5016004;28;20029;-86
2022/08/31 03:36:29;;;;;;;3.63;1.95;;;18.40;57.30;;;;;;5015291;28;20021;-85
2022/08/31 03:38:55;;;;;;;3.10;2.22;;;18.40;57.40;;;;;;4995902;28;20025;-86
2022/08/31 03:41:23;;;;;;;4.18;2.55;;;18.40;57.60;;;;;;5016632;28;20029;-85
2022/08/31 03:43:50;;;;;;;3.47;1.92;;;18.40;57.60;;;;;;5019700;28;20041;-86
2022/08/31 03:46:17;;;;;;;3.67;2.28;;;18.30;57.50;;;;;;5014796;28;20531;-84
2022/08/31 03:48:46;;;;;;;2.75;2.20;;;18.30;57.60;;;;;;5005628;28;20046;-84
2022/08/31 03:51:14;;;;;;;4.18;2.80;;;18.30;57.70;;;;;;4998155;28;20087;-85
2022/08/31 03:53:41;;;;;;;6.57;2.90;;;18.30;57.80;;;;;;4988076;28;20034;-84
2022/08/31 03:56:09;;;;;;;3.53;2.38;;;18.20;57.70;;;;;;5001643;28;20506;-86
2022/08/31 03:58:40;;;;;;;3.70;1.95;;;18.20;57.80;;;;;;5004241;28;20049;-85
2022/08/31 04:01:09;;;;;;;4.22;2.42;;;18.20;57.90;;;;;;4972715;28;20033;-86
2022/08/31 04:04:15;;;;;;;4.18;2.20;;;18.10;57.80;;;;;;4936142;29;20744;-87
2022/08/31 04:07:00;;;;;;;3.22;2.30;;;18.10;57.80;;;;;;4912716;29;20036;-86
2022/08/31 04:10:05;;;;;;;2.97;2.22;;;18.10;57.90;;;;;;4956257;28;20030;-86
2022/08/31 04:12:52;;;;;;;3.42;2.90;;;18.10;57.90;;;;;;4971689;28;20049;-88
2022/08/31 04:15:47;;;;;;;4.60;3.15;;;18.10;58.10;;;;;;4960017;28;20039;-85
2022/08/31 04:18:42;;;;;;;4.70;2.38;;;18.00;57.90;;;;;;4988832;28;20091;-87
2022/08/31 04:21:14;;;;;;;3.78;2.53;;;18.00;58.00;;;;;;5004714;28;20044;-86
2022/08/31 04:23:40;;;;;;;5.60;2.80;;;18.00;58.30;;;;;;5005476;28;21049;-86
2022/08/31 04:26:14;;;;;;;4.88;2.97;;;18.00;58.30;;;;;;4989480;28;20144;-85
2022/08/31 04:28:41;;;;;;;5.55;3.00;;;17.90;58.20;;;;;;4983857;28;20025;-84
2022/08/31 04:31:07;;;;;;;8.68;3.42;;;17.90;58.30;;;;;;5005648;28;20347;-87
2022/08/31 04:33:38;;;;;;;4.28;3.10;;;17.90;58.40;;;;;;5004754;28;20140;-85
2022/08/31 04:36:09;;;;;;;3.35;2.92;;;17.90;58.50;;;;;;4988475;28;20030;-87
2022/08/31 04:38:36;;;;;;;4.10;3.05;;;17.90;58.60;;;;;;5002162;28;20034;-87
2022/08/31 04:41:08;;;;;;;5.35;3.20;;;17.90;58.60;;;;;;4989629;28;20103;-87
2022/08/31 04:43:36;;;;;;;3.53;3.13;;;17.90;58.80;;;;;;5005461;28;20038;-88
2022/08/31 04:46:04;;;;;;;6.70;4.28;;;17.90;58.80;;;;;;5008123;28;20454;-86
2022/08/31 04:48:30;;;;;;;4.18;3.10;;;17.80;58.70;;;;;;5009487;28;20040;-86
2022/08/31 04:51:07;;;;;;;5.80;3.70;;;17.80;58.80;;;;;;4996859;28;20029;-86
2022/08/31 04:53:35;;;;;;;4.88;3.38;;;17.80;59.00;;;;;;5025635;28;20048;-90
2022/08/31 04:56:08;;;;;;;6.97;3.50;;;17.80;59.00;;;;;;4998772;28;20033;-87
2022/08/31 04:58:34;;;;;;;4.68;3.13;;;17.70;58.90;;;;;;4986702;28;20018;-88
2022/08/31 05:01:00;;;;;;;5.20;4.15;;;17.80;59.10;;;;;;5017872;28;20026;-86
2022/08/31 05:03:54;;;;;;;4.20;3.75;;;17.70;59.00;;;;;;5023169;28;20022;-84
2022/08/31 05:06:25;;;;;;;4.63;4.10;;;17.70;59.00;;;;;;5023123;28;20041;-86
2022/08/31 05:08:57;;;;;;;6.07;3.60;;;17.70;59.10;;;;;;5011202;28;20553;-85
2022/08/31 05:11:26;;;;;;;6.32;4.45;;;17.60;59.10;;;;;;5015474;28;20041;-88
2022/08/31 05:13:55;;;;;;;6.47;4.80;;;17.60;59.10;;;;;;4992715;28;20099;-87
2022/08/31 05:16:22;;;;;;;4.57;4.03;;;17.60;59.10;;;;;;4973084;28;20434;-86
2022/08/31 05:18:49;;;;;;;4.60;3.60;;;17.60;59.20;;;;;;4984285;28;20029;-86
2022/08/31 05:21:28;;;;;;;5.63;4.30;;;17.60;59.30;;;;;;5026240;28;20087;-87
2022/08/31 05:23:57;;;;;;;10.50;4.40;;;17.60;59.40;;;;;;5019641;28;20052;-87
2022/08/31 05:26:26;;;;;;;5.28;4.07;;;17.50;59.30;;;;;;5017695;28;20059;-85
2022/08/31 05:28:53;;;;;;;4.68;4.20;;;17.50;59.40;;;;;;5000334;28;20029;-85
2022/08/31 05:31:20;;;;;;;6.22;4.35;;;17.50;59.50;;;;;;4991167;28;20048;-85
2022/08/31 05:33:47;;;;;;;4.50;4.10;;;17.50;59.60;;;;;;5022187;28;20719;-84
2022/08/31 05:36:15;;;;;;;4.65;4.00;;;17.50;59.60;;;;;;5022308;28;20085;-85
2022/08/31 05:38:42;;;;;;;4.43;4.03;;;17.50;59.70;;;;;;5036887;28;20105;-86
2022/08/31 05:41:10;;;;;;;6.97;4.72;;;17.50;59.70;;;;;;5014950;28;20033;-86
2022/08/31 05:43:38;;;;;;;5.13;4.25;;;17.50;59.80;;;;;;5012977;28;20071;-83
2022/08/31 05:46:09;;;;;;;5.32;4.85;;;17.50;59.80;;;;;;4994884;28;20502;-81
2022/08/31 05:48:36;;;;;;;5.13;4.63;;;17.40;59.70;;;;;;5015931;28;20442;-82
2022/08/31 05:51:09;;;;;;;9.35;5.63;;;17.40;59.70;;;;;;5004813;28;20673;-82
2022/08/31 05:53:37;;;;;;;5.45;4.50;;;17.40;59.70;;;;;;5001949;28;20144;-84
2022/08/31 05:56:08;;;;;;;5.35;4.85;;;17.40;59.70;;;;;;4993998;28;20025;-82
2022/08/31 05:58:35;;;;;;;6.03;4.88;;;17.40;59.80;;;;;;5017199;28;20036;-86
2022/08/31 06:01:03;;;;;;;7.60;5.47;;;17.40;59.80;;;;;;5012886;28;20212;-86
2022/08/31 06:03:53;;;;;;;6.88;6.18;;;17.40;59.90;;;;;;5013609;28;20041;-83
2022/08/31 06:06:20;;;;;;;7.47;6.75;;;17.40;59.80;;;;;;4998789;28;20139;-84
2022/08/31 06:08:50;;;;;;;9.10;6.25;;;17.40;59.90;;;;;;5014957;28;20208;-82
2022/08/31 06:11:18;;;;;;;6.85;6.18;;;17.40;60.00;;;;;;5020893;28;20022;-84
2022/08/31 06:13:50;;;;;;;7.47;6.53;;;17.40;60.10;;;;;;5017675;28;20105;-83
2022/08/31 06:16:17;;;;;;;5.93;5.35;;;17.50;60.40;;;;;;5026313;28;20033;-88
2022/08/31 06:18:50;;;;;;;7.05;6.35;;;17.50;60.30;;;;;;4992685;28;20408;-84
2022/08/31 06:21:22;;;;;;;7.45;6.57;;;17.60;60.50;;;;;;4996547;28;20059;-90
2022/08/31 06:23:50;;;;;;;7.00;5.82;;;17.70;60.60;;;;;;5025330;28;20107;-87
2022/08/31 06:26:18;;;;;;;7.38;6.68;;;17.80;60.60;;;;;;5020371;28;20037;-88
2022/08/31 06:28:48;;;;;;;9.88;7.45;;;17.90;60.60;;;;;;4999489;28;20319;-85
2022/08/31 06:31:19;;;;;;;8.55;6.28;;;18.10;60.70;;;;;;4996757;28;20037;-87
2022/08/31 06:33:46;;;;;;;8.95;5.95;;;18.30;60.70;;;;;;5002613;28;20401;-90
2022/08/31 06:36:28;;;;;;;6.43;5.72;;;18.50;60.60;;;;;;4995318;28;20026;-87
2022/08/31 06:39:01;;;;;;;6.72;6.03;;;18.80;60.70;;;;;;5013628;28;20090;-87
2022/08/31 06:41:36;;;;;;;7.13;6.28;;;19.00;60.50;;;;;;5013272;28;20030;-89
2022/08/31 06:44:22;;;;;;;8.73;6.00;;;19.30;60.50;;;;;;5016640;28;20042;-88
2022/08/31 06:47:05;;;;;;;5.53;4.97;;;19.40;60.10;;;;;;4997782;28;20045;-88
2022/08/31 06:49:34;;;;;;;6.78;5.50;;;19.70;60.20;;;;;;4978792;28;20034;-89
2022/08/31 06:52:01;;;;;;;5.60;5.03;;;19.90;60.10;;;;;;4992227;28;20412;-88
2022/08/31 06:54:29;;;;;;;7.47;4.95;;;20.10;60.10;;;;;;5011324;28;20033;-87
2022/08/31 06:57:14;;;;;;;6.43;5.10;;;20.20;59.80;;;;;;4995193;28;20120;-89
2022/08/31 07:00:16;;;;;;;5.13;4.72;;;20.50;59.70;;;;;;5024394;28;20068;-84
2022/08/31 07:03:21;;;;;;;5.97;5.32;;;20.80;59.50;;;;;;5014209;28;20453;-85
2022/08/31 07:05:51;;;;;;;8.07;5.03;;;21.00;59.20;;;;;;5016435;28;20056;-85
2022/08/31 07:08:18;;;;;;;7.40;5.03;;;21.10;59.00;;;;;;4997744;28;20638;-84
2022/08/31 07:10:45;;;;;;;5.88;5.38;;;21.20;59.50;;;;;;5014013;28;20052;-83
2022/08/31 07:13:11;;;;;;;6.20;5.03;;;21.20;58.60;;;;;;5014790;28;20037;-87
2022/08/31 07:15:37;;;;;;;7.25;5.25;;;21.30;58.50;;;;;;4997224;28;20080;-86
2022/08/31 07:18:04;;;;;;;6.05;5.45;;;21.20;58.20;;;;;;4994112;28;20040;-87
2022/08/31 07:20:30;;;;;;;6.57;5.57;;;21.20;58.30;;;;;;5017797;28;20017;-87
2022/08/31 07:22:56;;;;;;;5.97;5.22;;;21.20;58.30;;;;;;4973075;28;20025;-88
2022/08/31 07:25:32;;;;;;;7.47;5.50;;;21.10;58.30;;;;;;5015100;28;20029;-88
2022/08/31 07:28:00;;;;;;;6.90;5.57;;;21.00;58.20;;;;;;5001306;28;20118;-85
2022/08/31 07:30:26;;;;;;;7.65;5.55;;;21.00;58.30;;;;;;5015603;28;20070;-84
2022/08/31 07:32:52;;;;;;;6.30;5.43;;;20.90;58.30;;;;;;4996620;28;20084;-83
2022/08/31 07:35:21;;;;;;;7.97;5.32;;;20.80;58.20;;;;;;5020173;28;20026;-88
2022/08/31 07:43:35;;;;;;;6.10;5.53;;;20.60;58.20;;;;;;5030913;28;20044;-89
2022/08/31 07:46:02;;;;;;;8.20;6.00;;;20.60;58.30;;;;;;5028209;28;20403;-84
2022/08/31 07:48:28;;;;;;;7.80;5.35;;;20.60;58.30;;;;;;5009813;28;20083;-84
2022/08/31 07:51:10;;;;;;;6.45;4.97;;;20.70;58.40;;;;;;5015259;28;20025;-86
2022/08/31 07:53:55;;;;;;;10.68;6.50;;;20.80;58.50;;;;;;5000787;28;20086;-83
2022/08/31 07:56:30;;;;;;;8.82;4.95;;;20.80;58.20;;;;;;5026063;28;20376;-80
2022/08/31 07:59:18;;;;;;;6.18;4.68;;;20.90;58.20;;;;;;4998227;28;20128;-82
2022/08/31 08:01:47;;;;;;;6.78;5.10;;;21.00;58.20;;;;;;5010999;28;20039;-83
2022/08/31 08:04:37;;;;;;;6.95;4.95;;;21.10;58.10;;;;;;5012384;28;20132;-82
2022/08/31 08:07:32;;;;;;;5.60;4.82;;;21.20;58.10;;;;;;4995085;28;20043;-85
2022/08/31 08:10:32;;;;;;;5.68;3.70;;;21.30;58.10;;;;;;5021228;28;20037;-86
2022/08/31 08:13:22;;;;;;;5.20;4.05;;;21.30;57.90;;;;;;5018369;28;20052;-88
2022/08/31 08:15:52;;;;;;;4.60;3.92;;;21.50;58.10;;;;;;4998447;28;20041;-83
2022/08/31 08:18:33;;;;;;;5.90;4.63;;;21.50;57.90;;;;;;4979983;28;20041;-84
2022/08/31 08:21:02;;;;;;;5.90;4.45;;;21.60;58.00;;;;;;4992979;28;20029;-87
2022/08/31 08:23:28;;;;;;;6.30;4.13;;;21.50;57.80;;;;;;4976525;28;20105;-84
2022/08/31 08:26:08;;;;;;;6.40;4.07;;;21.60;58.00;;;;;;5020472;28;20021;-84
2022/08/31 08:29:02;;;;;;;5.30;3.35;;;21.60;58.00;;;;;;5002167;28;20078;-84
2022/08/31 08:31:28;;;;;;;4.38;3.63;;;21.60;58.50;;;;;;4976189;28;20040;-84
2022/08/31 08:33:54;;;;;;;7.00;4.10;;;21.70;58.00;;;;;;5007343;28;20037;-83
2022/08/31 08:36:21;;;;;;;8.93;3.63;;;21.70;57.90;;;;;;4991508;28;20269;-85
2022/08/31 08:38:50;;;;;;;7.15;3.90;;;21.80;58.00;;;;;;5006102;28;20025;-83
2022/08/31 08:41:20;;;;;;;6.97;3.58;;;21.90;58.00;;;;;;5014000;28;20030;-83
2022/08/31 08:43:54;;;;;;;5.63;3.40;;;21.90;57.80;;;;;;5010556;28;20025;-82
2022/08/31 08:46:31;;;;;;;7.68;4.65;;;22.00;57.90;;;;;;5009342;28;20057;-84
2022/08/31 08:49:02;;;;;;;3.95;3.13;;;22.10;58.10;;;;;;5028582;28;20197;-86
2022/08/31 08:51:36;;;;;;;5.15;3.53;;;22.20;58.10;;;;;;4998227;28;20033;-84
2022/08/31 08:54:09;;;;;;;5.05;3.80;;;22.30;58.00;;;;;;5011833;28;20037;-81
2022/08/31 08:56:40;;;;;;;4.82;3.30;;;22.50;58.10;;;;;;5006813;28;20669;-83
2022/08/31 08:59:10;;;;;;;6.60;3.22;;;22.60;58.00;;;;;;4997653;28;20029;-82
2022/08/31 09:01:37;;;;;;;6.40;2.90;;;22.80;58.00;;;;;;5000581;28;20034;-83
2022/08/31 09:04:25;;;;;;;5.85;2.60;;;22.90;57.80;;;;;;5007129;28;20074;-87
2022/08/31 09:07:55;;;;;;;4.68;2.70;;;23.00;57.70;;;;;;5001742;28;20034;-84
2022/08/31 09:10:35;;;;;;;6.05;3.05;;;23.30;58.00;;;;;;5006455;28;20037;-84
2022/08/31 09:13:24;;;;;;;4.65;2.40;;;23.40;57.70;;;;;;5010868;28;20131;-84
2022/08/31 09:16:27;;;;;;;10.23;4.38;;;23.60;57.70;;;;;;4978814;28;20196;-85
2022/08/31 09:18:58;;;;;;;6.63;3.28;;;23.70;57.50;;;;;;5013748;28;20041;-83
2022/08/31 09:21:29;;;;;;;5.72;2.47;;;23.80;57.50;;;;;;4997297;28;20029;-83
2022/08/31 09:23:58;;;;;;;4.60;2.58;;;23.80;57.40;;;;;;5018159;28;20030;-84
2022/08/31 09:26:26;;;;;;;5.10;2.67;;;23.90;57.40;;;;;;5003751;28;20457;-86
2022/08/31 09:29:12;;;;;;;6.72;3.30;;;23.90;57.20;;;;;;5013728;28;20030;-84
2022/08/31 09:31:42;;;;;;;6.55;3.10;;;23.90;57.10;;;;;;5015475;28;20025;-84
2022/08/31 09:34:30;;;;;;;6.70;2.75;;;23.90;57.00;;;;;;4997842;28;20047;-85
2022/08/31 09:37:39;;;;;;;5.20;2.40;;;24.00;57.00;;;;;;5015982;28;20131;-84
2022/08/31 09:40:35;;;;;;;6.43;2.53;;;24.00;56.90;;;;;;4996242;28;20033;-84
2022/08/31 09:43:03;;;;;;;4.32;2.33;;;24.00;56.80;;;;;;5009246;28;20083;-85
2022/08/31 09:45:34;;;;;;;6.00;2.42;;;24.10;56.90;;;;;;5002408;28;20037;-89
2022/08/31 09:48:03;;;;;;;4.07;2.30;;;24.10;56.70;;;;;;4999787;28;20199;-91
2022/08/31 09:50:34;;;;;;;5.65;2.40;;;24.10;56.60;;;;;;5001921;28;20025;-87
2022/08/31 09:56:13;;;;;;;4.05;2.25;;;24.00;56.10;;;;;;4999706;28;20029;-90
2022/08/31 09:58:41;;;;;;;6.85;2.55;;;24.00;56.20;;;;;;5009533;28;20066;-89
2022/08/31 10:01:21;;;;;;;9.70;3.47;;;24.00;56.20;;;;;;5008737;28;20033;-83
2022/08/31 10:03:48;;;;;;;4.30;2.22;;;24.10;56.20;;;;;;5013478;28;20035;-87
2022/08/31 10:07:05;;;;;;;5.10;2.17;;;24.20;56.20;;;;;;5011370;28;20372;-84
2022/08/31 10:09:36;;;;;;;6.38;2.30;;;24.30;55.90;;;;;;4997338;28;20035;-84
2022/08/31 10:12:10;;;;;;;3.55;2.10;;;24.40;55.90;;;;;;4988082;28;20101;-84
2022/08/31 10:14:40;;;;;;;4.30;2.25;;;24.40;55.70;;;;;;5025142;28;20029;-84
2022/08/31 10:17:24;;;;;;;4.07;2.85;;;24.40;55.60;;;;;;5024455;28;20226;-83
2022/08/31 10:19:57;;;;;;;5.60;2.22;;;24.40;55.40;;;;;;5011775;28;20037;-85
2022/08/31 10:22:40;;;;;;;4.03;1.88;;;24.40;55.40;;;;;;5014117;28;20026;-86
2022/08/31 10:25:14;;;;;;;3.25;1.70;;;24.40;55.20;;;;;;5007003;28;20029;-85
2022/08/31 10:27:54;;;;;;;3.83;2.08;;;24.40;55.00;;;;;;5018715;28;20026;-84
2022/08/31 10:30:23;;;;;;;2.97;1.35;;;24.40;54.90;;;;;;5010618;28;20042;-85
2022/08/31 10:32:52;;;;;;;5.13;1.70;;;24.40;54.70;;;;;;5016307;28;20063;-86
2022/08/31 10:35:25;;;;;;;4.35;1.95;;;24.50;54.60;;;;;;5039653;28;20025;-86
2022/08/31 10:38:07;;;;;;;4.72;1.58;;;24.60;54.40;;;;;;5035582;28;20101;-86
2022/08/31 10:40:49;;;;;;;5.00;2.05;;;24.80;54.40;;;;;;5005035;28;20033;-84
2022/08/31 10:43:20;;;;;;;4.72;1.98;;;25.00;54.20;;;;;;5031472;28;20503;-85
2022/08/31 10:45:51;;;;;;;2.10;1.55;;;25.20;53.90;;;;;;5008744;28;20089;-85
2022/08/31 10:48:23;;;;;;;3.40;1.75;;;25.30;53.40;;;;;;5011302;28;20460;-85
2022/08/31 10:51:04;;;;;;;5.75;1.42;;;25.50;53.20;;;;;;5001909;28;20071;-82
2022/08/31 10:53:56;;;;;;;3.53;1.70;;;25.60;52.80;;;;;;5016147;28;20132;-89
2022/08/31 10:56:40;;;;;;;2.40;1.40;;;25.80;52.30;;;;;;5026251;28;20125;-88
2022/08/31 10:59:11;;;;;;;2.35;1.52;;;25.90;52.00;;;;;;5035185;28;20187;-88
2022/08/31 11:02:07;;;;;;;2.80;1.80;;;26.00;51.80;;;;;;5016098;28;20030;-87
2022/08/31 11:04:47;;;;;;;2.70;1.27;;;26.00;51.40;;;;;;5025104;28;20445;-84
2022/08/31 11:07:47;;;;;;;4.45;1.65;;;26.10;51.30;;;;;;5031985;28;20106;-84
2022/08/31 11:10:46;;;;;;;5.75;1.92;;;26.10;51.00;;;;;;5029924;28;20373;-82
2022/08/31 11:13:50;;;;;;;5.25;1.33;;;26.10;50.90;;;;;;5015131;28;20060;-87
2022/08/31 11:16:42;;;;;;;7.22;1.92;;;26.10;50.90;;;;;;4984829;28;20037;-85
2022/08/31 11:19:24;;;;;;;4.33;1.73;;;26.20;50.70;;;;;;5002869;28;20026;-84
2022/08/31 11:21:57;;;;;;;;;;;26.30;50.70;;;;;;4999820;28;20048;-82
2022/08/31 11:25:02;;;;;;;3.47;1.20;;;26.50;50.60;;;;;;5024255;28;19909;-84
2022/08/31 11:27:35;;;;;;;3.38;1.48;;;26.50;49.90;;;;;;5015834;28;20029;-83
2022/08/31 11:30:06;;;;;;;4.38;1.60;;;26.60;49.90;;;;;;5009650;28;20317;-85
2022/08/31 11:32:49;;;;;;;4.22;1.17;;;26.60;49.60;;;;;;5024872;28;20063;-83
2022/08/31 11:35:48;;;;;;;5.28;2.08;;;26.60;49.00;;;;;;5015489;28;20033;-84
2022/08/31 11:38:55;;;;;;;2.45;1.50;;;26.70;48.80;;;;;;4999557;28;20456;-85
2022/08/31 11:41:46;;;;;;;3.65;1.30;;;26.70;48.70;;;;;;5011818;28;20030;-89
2022/08/31 11:44:28;;;;;;;4.93;1.48;;;26.80;48.50;;;;;;5013644;28;20050;-89
2022/08/31 11:47:28;;;;;;;2.92;1.50;;;26.90;48.40;;;;;;5010616;28;20053;-89
2022/08/31 11:49:58;;;;;;;5.57;1.25;;;27.00;48.10;;;;;;4993978;28;20036;-83
2022/08/31 11:52:33;;;;;;;3.08;1.10;;;27.10;48.20;;;;;;5011921;28;20095;-86
2022/08/31 11:55:09;;;;;;;4.25;1.30;;;27.10;47.80;;;;;;5011524;28;20104;-86
2022/08/31 11:58:08;;;;;;;10.00;2.08;;;27.10;47.70;;;;;;5022536;28;20051;-87
2022/08/31 12:00:50;;;;;;;3.67;1.58;;;27.10;47.30;;;;;;5013428;28;20370;-87
2022/08/31 12:03:49;;;;;;;4.90;1.17;;;27.10;47.40;;;;;;4980409;28;20559;-87
2022/08/31 12:06:30;;;;;;;2.67;1.05;;;27.10;47.30;;;;;;4994119;28;20037;-87
2022/08/31 12:09:14;;;;;;;3.75;1.33;;;27.10;47.40;;;;;;4992143;28;20337;-88
2022/08/31 12:11:52;;;;;;;3.15;1.70;;;27.20;47.50;;;;;;5027123;28;20040;-88
2022/08/31 12:14:48;;;;;;;4.40;1.25;;;27.20;47.10;;;;;;4994927;28;20034;-87
2022/08/31 12:17:45;;;;;;;4.00;0.90;;;27.20;46.90;;;;;;5033953;28;20037;-82
2022/08/31 12:24:08;;;;;;;3.35;1.50;;;27.50;46.60;;;;;;5024382;28;20155;-87
2022/08/31 12:26:57;;;;;;;3.10;1.17;;;27.50;46.20;;;;;;5015050;28;20129;-87
2022/08/31 12:29:36;;;;;;;4.15;1.30;;;27.60;46.30;;;;;;5011436;28;20018;-87
2022/08/31 12:32:34;;;;;;;3.00;1.17;;;27.60;46.30;;;;;;5013708;28;20048;-87
2022/08/31 12:35:12;;;;;;;3.08;1.23;;;27.70;45.80;;;;;;5010259;28;20033;-85
2022/08/31 12:37:39;;;;;;;4.07;1.45;;;27.80;45.80;;;;;;5010742;28;20098;-84
2022/08/31 12:40:06;;;;;;;3.72;1.23;;;27.90;45.80;;;;;;4994368;28;20471;-83
2022/08/31 12:42:35;;;;;;;5.60;1.42;;;28.00;45.70;;;;;;5003757;28;20045;-86
2022/08/31 12:45:03;;;;;;;4.15;1.17;;;28.10;45.60;;;;;;5025352;28;20030;-84
2022/08/31 12:47:53;;;;;;;4.30;1.02;;;28.30;45.30;;;;;;5022738;28;20049;-84
2022/08/31 12:50:25;;;;;;;3.72;1.13;;;28.50;44.80;;;;;;5016828;28;20111;-84
2022/08/31 12:53:09;;;;;;;1.95;1.42;;;28.70;45.30;;;;;;5022369;28;20040;-87
2022/08/31 12:55:56;;;;;;;2.95;1.20;;;28.80;44.40;;;;;;5015920;28;20576;-88
2022/08/31 12:59:02;;;;;;;4.40;1.17;;;28.80;44.20;;;;;;4993634;28;20075;-86
2022/08/31 13:01:28;;;;;;;2.00;1.10;;;28.80;44.10;;;;;;5013755;28;20385;-92
2022/08/31 13:03:59;;;;;;;4.38;1.75;;;29.00;44.30;;;;;;5024408;28;20434;-87
2022/08/31 13:06:31;;;;;;;3.72;1.38;;;29.10;43.90;;;;;;5014835;28;20021;-85
2022/08/31 13:08:59;;;;;;;;;;;29.20;43.70;;;;;;4990992;28;20083;-85
2022/08/31 13:11:41;;;;;;;4.65;1.63;;;29.20;43.80;;;;;;5010537;28;20224;-88
2022/08/31 13:14:10;;;;;;;3.13;1.33;;;29.10;43.80;;;;;;5004255;28;20037;-87
2022/08/31 13:16:45;;;;;;;4.28;1.55;;;29.00;43.90;;;;;;5014733;28;20025;-85
2022/08/31 13:19:22;;;;;;;1.88;0.98;;;28.90;43.70;;;;;;5025466;28;20026;-85
2022/08/31 13:22:05;;;;;;;2.55;1.23;;;29.00;43.60;;;;;;4997333;28;20145;-85
2022/08/31 13:24:35;;;;;;;2.80;1.00;;;29.10;43.40;;;;;;5023386;28;20041;-87
2022/08/31 13:27:19;;;;;;;2.30;1.20;;;29.40;43.20;;;;;;5015611;28;20030;-89
2022/08/31 13:29:47;;;;;;;2.42;0.95;;;29.50;42.90;;;;;;5026367;28;20048;-87
2022/08/31 13:32:32;;;;;;;1.90;0.93;;;29.60;42.80;;;;;;4993986;28;20272;-88
2022/08/31 13:35:07;;;;;;;3.92;1.23;;;29.60;42.30;;;;;;5009945;28;20396;-86
2022/08/31 13:37:39;;;;;;;3.15;1.35;;;29.60;42.20;;;;;;4997234;28;20048;-88
2022/08/31 13:40:09;;;;;;;2.95;1.50;;;29.70;42.00;;;;;;5024171;28;20038;-88
2022/08/31 13:42:44;;;;;;;3.63;1.20;;;29.80;42.00;;;;;;5031895;28;20051;-86